Time;durP1;ratioP1;P1;durP2;ratioP2;P2;SDS_P1;SDS_P2;PMS_P1;PMS_P2;Temp;Humidity;BMP_temperature;BMP_pressure;BME280_temperature;BME280_humidity;BME280_pressure;Samples;Min_cycle;Max_cycle;Signal;HPM_P1;HPM_P2
2023/04/03 00:00:27;;;;;;;1.70;1.60;;;7.20;83.60;;;;;;5113053;28;20201;-79
2023/04/03 00:02:52;;;;;;;1.97;1.30;;;7.20;83.60;;;;;;5112719;28;20172;-79
2023/04/03 00:05:18;;;;;;;1.33;1.33;;;7.10;83.80;;;;;;5112516;28;20189;-78
2023/04/03 00:07:44;;;;;;;1.57;1.57;;;7.00;83.70;;;;;;5112800;28;20175;-79
2023/04/03 00:10:10;;;;;;;2.00;1.80;;;7.00;84.10;;;;;;5116029;27;20655;-78
2023/04/03 00:12:35;;;;;;;1.70;1.60;;;7.10;83.30;;;;;;5133230;27;20537;-78
2023/04/03 00:15:01;;;;;;;1.83;1.73;;;7.00;82.30;;;;;;5114341;28;20236;-78
2023/04/03 00:17:27;;;;;;;1.63;1.53;;;7.00;82.70;;;;;;5133020;28;20679;-78
2023/04/03 00:19:53;;;;;;;1.67;1.67;;;7.00;82.90;;;;;;5132859;28;20171;-79
2023/04/03 00:22:18;;;;;;;1.90;1.80;;;6.90;82.90;;;;;;5133152;28;20244;-80
2023/04/03 00:24:44;;;;;;;1.63;1.53;;;6.90;82.60;;;;;;5132949;28;20194;-80
2023/04/03 00:27:10;;;;;;;1.80;1.70;;;6.90;82.90;;;;;;5133084;28;20251;-79
2023/04/03 00:29:36;;;;;;;1.30;1.30;;;6.80;83.10;;;;;;5114467;28;20178;-78
2023/04/03 00:32:02;;;;;;;1.70;1.60;;;6.80;83.30;;;;;;5132983;28;20174;-79
2023/04/03 00:34:28;;;;;;;1.60;1.50;;;6.80;83.70;;;;;;5114393;28;20556;-79
2023/04/03 00:36:54;;;;;;;1.77;1.67;;;6.80;83.80;;;;;;5136892;27;20256;-79
2023/04/03 00:39:20;;;;;;;1.70;1.60;;;6.80;83.20;;;;;;5118569;27;20268;-79
2023/04/03 00:41:45;;;;;;;1.70;1.60;;;6.80;83.60;;;;;;5136824;27;20236;-78
2023/04/03 00:44:37;;;;;;;1.50;1.50;;;6.80;83.50;;;;;;5136700;27;20722;-78
2023/04/03 00:47:06;;;;;;;1.53;1.53;;;6.80;83.40;;;;;;5104971;27;20535;-78
2023/04/03 00:49:32;;;;;;;1.43;1.40;;;6.70;83.30;;;;;;5136854;27;20175;-81
2023/04/03 00:51:59;;;;;;;1.70;1.60;;;6.70;83.70;;;;;;5118289;27;20206;-78
2023/04/03 00:54:26;;;;;;;1.90;1.80;;;6.70;83.30;;;;;;5136582;27;20244;-78
2023/04/03 00:56:54;;;;;;;1.57;1.57;;;6.70;83.60;;;;;;5136563;27;20641;-78
2023/04/03 00:59:25;;;;;;;1.60;1.60;;;6.80;84.00;;;;;;5136400;27;20178;-80
2023/04/03 01:01:55;;;;;;;1.70;1.60;;;6.80;83.50;;;;;;5136540;27;20158;-78
2023/04/03 01:04:35;;;;;;;2.10;1.60;;;6.80;83.40;;;;;;5136618;27;20172;-79
2023/04/03 01:07:05;;;;;;;1.53;1.43;;;6.80;82.90;;;;;;5136373;27;20170;-77
2023/04/03 01:09:32;;;;;;;1.60;1.50;;;6.70;83.50;;;;;;5137354;27;20175;-77
2023/04/03 01:12:23;;;;;;;1.47;1.37;;;6.70;83.60;;;;;;5117287;27;20254;-77
2023/04/03 01:15:00;;;;;;;1.90;1.80;;;6.80;84.20;;;;;;5115598;28;20274;-79
2023/04/03 01:17:28;;;;;;;1.70;1.60;;;6.80;83.60;;;;;;5115727;28;20166;-78
2023/04/03 01:20:02;;;;;;;1.50;1.50;;;6.70;83.50;;;;;;5115575;28;20254;-78
2023/04/03 01:22:38;;;;;;;1.60;1.50;;;6.70;83.70;;;;;;5115846;28;20177;-78
2023/04/03 01:25:05;;;;;;;1.27;1.27;;;6.60;83.80;;;;;;5115693;28;20197;-77
2023/04/03 01:27:30;;;;;;;1.40;1.40;;;6.60;84.10;;;;;;5115632;28;20203;-77
2023/04/03 01:29:56;;;;;;;2.40;1.47;;;6.60;83.90;;;;;;5115646;28;20600;-78
2023/04/03 01:32:22;;;;;;;1.30;1.30;;;6.50;84.40;;;;;;5115438;28;20162;-78
2023/04/03 01:34:48;;;;;;;1.77;1.67;;;6.50;84.20;;;;;;5115266;28;20271;-78
2023/04/03 01:37:14;;;;;;;1.70;1.60;;;6.50;84.20;;;;;;5115414;28;20584;-80
2023/04/03 01:39:40;;;;;;;1.60;1.57;;;6.50;84.30;;;;;;5115418;28;20259;-78
2023/04/03 01:42:06;;;;;;;2.00;1.90;;;6.30;84.30;;;;;;5115093;28;20701;-78
2023/04/03 01:44:32;;;;;;;1.50;1.50;;;6.30;84.80;;;;;;5115476;28;20174;-78
2023/04/03 01:46:57;;;;;;;1.57;1.57;;;6.40;84.80;;;;;;5114528;28;20179;-78
2023/04/03 01:49:23;;;;;;;1.67;1.67;;;6.40;84.40;;;;;;5115072;28;20178;-78
2023/04/03 01:51:49;;;;;;;1.53;1.47;;;6.40;84.40;;;;;;5115123;28;20195;-80
2023/04/03 01:54:14;;;;;;;1.83;1.73;;;6.40;84.50;;;;;;5098179;28;20223;-79
2023/04/03 01:56:40;;;;;;;1.70;1.60;;;6.40;84.40;;;;;;5115126;28;20242;-79
2023/04/03 01:59:06;;;;;;;1.60;1.60;;;6.40;84.50;;;;;;5096992;28;20179;-79
2023/04/03 02:01:32;;;;;;;1.57;1.57;;;6.30;84.50;;;;;;5116124;28;20160;-77
2023/04/03 02:03:58;;;;;;;1.50;1.50;;;6.30;84.60;;;;;;5115185;28;20695;-78
2023/04/03 02:06:23;;;;;;;1.83;1.73;;;6.40;84.10;;;;;;5115011;28;20737;-80
2023/04/03 02:08:49;;;;;;;1.60;1.60;;;6.40;84.50;;;;;;5114700;28;20584;-78
2023/04/03 02:11:15;;;;;;;1.67;1.60;;;6.50;85.40;;;;;;5114699;28;20209;-80
2023/04/03 02:13:41;;;;;;;1.60;1.60;;;6.50;85.00;;;;;;5114442;28;20986;-79
2023/04/03 02:16:09;;;;;;;1.80;1.70;;;6.30;85.30;;;;;;5114629;28;20180;-80
2023/04/03 02:18:35;;;;;;;1.70;1.60;;;6.20;86.00;;;;;;5114309;28;20195;-78
2023/04/03 02:21:01;;;;;;;1.70;1.60;;;6.20;86.20;;;;;;5114463;28;20245;-79
2023/04/03 02:23:27;;;;;;;1.93;1.80;;;6.20;86.20;;;;;;5114444;28;20571;-78
2023/04/03 02:25:53;;;;;;;1.67;1.60;;;6.30;86.20;;;;;;5114456;28;20172;-80
2023/04/03 02:28:18;;;;;;;1.70;1.60;;;6.10;86.30;;;;;;5114515;28;20231;-79
2023/04/03 02:30:44;;;;;;;1.60;1.60;;;6.20;86.50;;;;;;5114132;28;20700;-78
2023/04/03 02:33:10;;;;;;;1.63;1.60;;;6.10;86.90;;;;;;5114140;28;20205;-77
2023/04/03 02:35:36;;;;;;;1.70;1.70;;;6.10;86.90;;;;;;5114259;28;20256;-78
2023/04/03 02:38:02;;;;;;;2.10;1.90;;;6.10;86.30;;;;;;5114065;28;20622;-79
2023/04/03 02:40:28;;;;;;;1.73;1.63;;;6.00;87.00;;;;;;5114102;28;20203;-77
2023/04/03 02:42:53;;;;;;;1.87;1.63;;;6.00;87.30;;;;;;5095591;28;20265;-78
2023/04/03 02:45:19;;;;;;;1.50;1.50;;;5.80;84.90;;;;;;5113865;28;20208;-79
2023/04/03 02:47:45;;;;;;;1.53;1.43;;;5.80;84.80;;;;;;5114037;28;20230;-77
2023/04/03 02:50:11;;;;;;;1.60;1.50;;;5.80;83.10;;;;;;5114364;28;20226;-78
2023/04/03 02:52:36;;;;;;;1.40;1.30;;;5.90;82.80;;;;;;5095583;28;20626;-79
2023/04/03 02:55:03;;;;;;;1.37;1.37;;;5.90;82.60;;;;;;5113737;28;20300;-77
2023/04/03 02:57:29;;;;;;;1.47;1.37;;;6.00;82.40;;;;;;5092416;28;20185;-77
2023/04/03 02:59:54;;;;;;;1.50;1.33;;;6.10;82.30;;;;;;5114126;28;20270;-79
2023/04/03 03:02:20;;;;;;;1.30;1.30;;;6.10;81.70;;;;;;5113311;28;20593;-76
2023/04/03 03:04:46;;;;;;;1.53;1.43;;;6.10;81.50;;;;;;5113015;28;20587;-77
2023/04/03 03:07:12;;;;;;;1.27;1.27;;;6.20;81.60;;;;;;5113601;28;20175;-79
2023/04/03 03:09:38;;;;;;;1.47;1.47;;;6.10;81.60;;;;;;5113523;28;20568;-78
2023/04/03 03:12:04;;;;;;;1.30;1.30;;;6.10;81.60;;;;;;5132358;27;20685;-78
2023/04/03 03:14:30;;;;;;;1.20;1.20;;;6.10;81.80;;;;;;5133328;27;20254;-78
2023/04/03 03:16:55;;;;;;;1.13;1.13;;;6.10;81.70;;;;;;5115336;27;20179;-79
2023/04/03 03:19:21;;;;;;;1.20;1.20;;;6.10;81.60;;;;;;5133453;27;20181;-79
2023/04/03 03:21:47;;;;;;;1.13;1.13;;;6.10;81.50;;;;;;5133319;27;20215;-78
2023/04/03 03:24:13;;;;;;;1.17;1.17;;;6.20;81.20;;;;;;5133610;27;20218;-78
2023/04/03 03:26:38;;;;;;;1.60;1.50;;;6.10;81.30;;;;;;5133496;27;20571;-79
2023/04/03 03:29:04;;;;;;;1.40;1.40;;;6.20;81.40;;;;;;5132977;27;20234;-79
2023/04/03 03:31:30;;;;;;;1.60;1.57;;;6.10;81.10;;;;;;5114906;27;20184;-77
2023/04/03 03:33:56;;;;;;;1.37;1.37;;;6.10;81.20;;;;;;5133552;27;20204;-77
2023/04/03 03:36:21;;;;;;;1.40;1.40;;;6.10;81.20;;;;;;5132756;27;20161;-77
2023/04/03 03:38:47;;;;;;;1.40;1.40;;;6.20;80.90;;;;;;5133323;27;20172;-78
2023/04/03 03:41:13;;;;;;;1.27;1.27;;;6.20;81.00;;;;;;5133244;27;20170;-78
2023/04/03 03:43:39;;;;;;;1.20;1.20;;;6.20;81.10;;;;;;5133360;27;20258;-78
2023/04/03 03:46:04;;;;;;;1.30;1.30;;;6.30;81.00;;;;;;5132933;27;20521;-78
2023/04/03 03:48:30;;;;;;;1.77;1.27;;;6.30;81.10;;;;;;5114768;27;20176;-77
2023/04/03 03:50:56;;;;;;;1.60;1.50;;;6.30;80.90;;;;;;5133378;27;20194;-78
2023/04/03 03:53:22;;;;;;;1.67;1.57;;;6.30;80.90;;;;;;5114929;27;20760;-78
2023/04/03 03:55:47;;;;;;;1.70;1.60;;;6.30;81.00;;;;;;5132946;27;20261;-79
2023/04/03 03:58:13;;;;;;;1.17;1.17;;;6.30;81.20;;;;;;5133171;27;20193;-77
2023/04/03 04:00:39;;;;;;;1.30;1.30;;;6.30;81.30;;;;;;5133234;27;20181;-79
2023/04/03 04:03:05;;;;;;;1.23;1.20;;;6.40;80.70;;;;;;5114783;27;20601;-77
2023/04/03 04:05:30;;;;;;;1.87;1.20;;;6.40;80.80;;;;;;5132975;27;20180;-80
2023/04/03 04:07:56;;;;;;;1.20;1.20;;;6.40;80.60;;;;;;5133534;27;20629;-80
2023/04/03 04:10:22;;;;;;;1.60;1.50;;;6.40;80.00;;;;;;5127643;27;20203;-79
2023/04/03 04:12:49;;;;;;;1.43;1.33;;;6.30;80.40;;;;;;5112587;28;20300;-79
2023/04/03 04:15:14;;;;;;;1.23;1.23;;;6.30;80.00;;;;;;5111705;28;20233;-78
2023/04/03 04:17:40;;;;;;;1.10;1.10;;;6.30;80.80;;;;;;5112191;28;20174;-78
2023/04/03 04:20:06;;;;;;;0.83;0.83;;;6.40;80.00;;;;;;5112244;28;20179;-78
2023/04/03 04:22:32;;;;;;;1.20;1.20;;;6.30;79.20;;;;;;5112392;28;20170;-77
2023/04/03 04:24:58;;;;;;;1.27;1.17;;;6.40;79.40;;;;;;5112082;28;20683;-80
2023/04/03 04:27:24;;;;;;;1.10;1.10;;;6.40;79.70;;;;;;5111595;28;20182;-78
2023/04/03 04:29:49;;;;;;;1.03;1.03;;;6.40;79.70;;;;;;5111414;28;20175;-78
2023/04/03 04:32:15;;;;;;;1.43;1.33;;;6.50;79.70;;;;;;5111991;28;20187;-79
2023/04/03 04:34:41;;;;;;;1.20;1.20;;;6.50;79.70;;;;;;5093410;28;20293;-80
2023/04/03 04:37:06;;;;;;;1.27;1.23;;;6.50;79.70;;;;;;5111693;28;20537;-78
2023/04/03 04:39:32;;;;;;;1.37;1.30;;;6.50;79.80;;;;;;5093712;28;20181;-78
2023/04/03 04:41:58;;;;;;;1.10;1.10;;;6.50;79.80;;;;;;5112150;28;20266;-79
2023/04/03 04:44:24;;;;;;;1.43;1.30;;;6.50;80.40;;;;;;5111466;28;20249;-79
2023/04/03 04:46:49;;;;;;;1.23;1.23;;;6.40;80.60;;;;;;5093446;28;20177;-78
2023/04/03 04:49:15;;;;;;;1.30;1.30;;;6.50;80.80;;;;;;5111980;28;20353;-78
2023/04/03 04:51:41;;;;;;;1.03;1.03;;;6.60;80.60;;;;;;5112178;28;20193;-79
2023/04/03 04:54:06;;;;;;;1.50;1.40;;;6.60;80.40;;;;;;5111639;28;20318;-77
2023/04/03 04:56:32;;;;;;;1.17;1.17;;;6.60;80.80;;;;;;5111561;28;20213;-78
2023/04/03 04:58:58;;;;;;;1.60;1.50;;;6.70;80.70;;;;;;5111458;28;20186;-77
2023/04/03 05:01:24;;;;;;;1.53;1.53;;;6.70;80.70;;;;;;5111660;28;20754;-78
2023/04/03 05:03:49;;;;;;;1.13;1.13;;;6.60;81.00;;;;;;5112163;28;20222;-79
2023/04/03 05:06:15;;;;;;;1.30;1.30;;;6.60;81.10;;;;;;5111433;28;20673;-78
2023/04/03 05:08:41;;;;;;;1.33;1.33;;;6.60;81.10;;;;;;5112194;28;20172;-78
2023/04/03 05:11:07;;;;;;;1.50;1.50;;;6.60;81.30;;;;;;5123204;28;20231;-78
2023/04/03 05:13:33;;;;;;;0.80;0.80;;;6.50;81.20;;;;;;5132046;28;20293;-77
2023/04/03 05:15:59;;;;;;;1.30;1.30;;;6.40;81.10;;;;;;5132122;28;20173;-78
2023/04/03 05:18:25;;;;;;;1.00;1.00;;;6.40;81.00;;;;;;5132917;28;20189;-79
2023/04/03 05:20:50;;;;;;;1.23;1.20;;;6.40;80.80;;;;;;5134130;27;20565;-78
2023/04/03 05:23:17;;;;;;;1.00;1.00;;;6.40;81.00;;;;;;5135841;27;20598;-78
2023/04/03 05:25:44;;;;;;;1.20;1.20;;;6.30;81.10;;;;;;5135889;27;20572;-80
2023/04/03 05:28:10;;;;;;;2.97;1.13;;;6.30;81.20;;;;;;5135816;27;20166;-78
2023/04/03 05:30:36;;;;;;;1.50;1.40;;;6.40;81.30;;;;;;5135889;27;20640;-79
2023/04/03 05:33:02;;;;;;;1.30;1.20;;;6.40;81.00;;;;;;5135805;27;20174;-78
2023/04/03 05:35:28;;;;;;;1.10;1.10;;;6.40;81.10;;;;;;5135746;27;20177;-77
2023/04/03 05:37:54;;;;;;;1.10;1.10;;;6.40;81.00;;;;;;5135737;27;20227;-78
2023/04/03 05:40:20;;;;;;;0.97;0.97;;;6.40;81.00;;;;;;5136076;27;20595;-79
2023/04/03 05:42:46;;;;;;;1.03;1.03;;;6.40;80.90;;;;;;5135665;27;20253;-78
2023/04/03 05:45:12;;;;;;;1.20;0.93;;;6.50;81.20;;;;;;5117071;27;20266;-80
2023/04/03 05:47:37;;;;;;;1.13;1.13;;;6.50;80.80;;;;;;5135564;27;20199;-77
2023/04/03 05:50:04;;;;;;;1.40;1.30;;;6.40;80.70;;;;;;5135277;27;20211;-78
2023/04/03 05:52:40;;;;;;;1.40;1.40;;;6.50;80.60;;;;;;5135853;27;20165;-79
2023/04/03 05:55:06;;;;;;;1.07;1.07;;;6.50;80.70;;;;;;5135504;27;20218;-78
2023/04/03 05:57:31;;;;;;;1.30;1.30;;;6.50;80.60;;;;;;5116619;27;20248;-78
2023/04/03 05:59:57;;;;;;;1.13;1.13;;;6.40;80.40;;;;;;5135453;27;20288;-78
2023/04/03 06:02:25;;;;;;;1.17;1.17;;;6.60;80.40;;;;;;5135794;27;20206;-77
2023/04/03 06:04:51;;;;;;;0.93;0.93;;;6.70;80.50;;;;;;5117375;27;20681;-78
2023/04/03 06:07:22;;;;;;;1.20;1.20;;;6.70;79.50;;;;;;5135829;27;20174;-78
2023/04/03 06:09:49;;;;;;;3.60;1.17;;;6.70;79.80;;;;;;5136444;27;20162;-77
2023/04/03 06:12:15;;;;;;;1.00;1.00;;;6.70;79.50;;;;;;5121081;28;20179;-78
2023/04/03 06:14:40;;;;;;;1.23;1.20;;;6.70;79.80;;;;;;5125315;28;20245;-79
2023/04/03 06:17:08;;;;;;;1.07;1.07;;;6.70;80.00;;;;;;5118961;28;20172;-77
2023/04/03 06:19:34;;;;;;;1.33;1.33;;;6.70;79.50;;;;;;5115035;28;20184;-78
2023/04/03 06:22:00;;;;;;;0.90;0.90;;;6.70;79.70;;;;;;5115318;28;20179;-77
2023/04/03 06:24:26;;;;;;;1.00;1.00;;;6.70;79.90;;;;;;5114492;28;20177;-77
2023/04/03 06:26:52;;;;;;;1.10;1.10;;;6.90;80.10;;;;;;5114307;28;20254;-79
2023/04/03 06:29:19;;;;;;;1.60;1.50;;;6.90;80.10;;;;;;5114665;28;20179;-78
2023/04/03 06:31:45;;;;;;;2.93;1.40;;;7.00;80.00;;;;;;5114412;28;20175;-78
2023/04/03 06:34:12;;;;;;;1.33;1.33;;;7.00;80.20;;;;;;5096089;28;20214;-77
2023/04/03 06:36:38;;;;;;;1.13;1.13;;;7.10;79.90;;;;;;5095896;28;20174;-77
2023/04/03 06:39:04;;;;;;;1.20;1.10;;;7.00;79.70;;;;;;5113735;28;21100;-79
2023/04/03 06:41:30;;;;;;;3.23;1.13;;;6.90;79.80;;;;;;5113940;28;20171;-78
2023/04/03 06:43:57;;;;;;;1.20;1.20;;;7.00;79.60;;;;;;5114095;28;20175;-78
2023/04/03 06:46:25;;;;;;;1.30;1.30;;;7.00;80.00;;;;;;5113638;28;20175;-78
2023/04/03 06:48:51;;;;;;;1.37;1.30;;;7.10;80.00;;;;;;5113922;28;20175;-78
2023/04/03 06:51:23;;;;;;;1.23;1.23;;;7.10;79.90;;;;;;5114216;28;20168;-78
2023/04/03 06:53:50;;;;;;;1.40;1.40;;;7.00;79.80;;;;;;5113707;28;20197;-78
2023/04/03 06:56:16;;;;;;;1.00;1.00;;;7.00;79.90;;;;;;5113840;28;20180;-78
2023/04/03 06:58:42;;;;;;;1.10;1.10;;;6.80;79.90;;;;;;5113446;28;20188;-79
2023/04/03 07:01:10;;;;;;;1.10;1.10;;;6.80;80.40;;;;;;5113527;28;20168;-80
2023/04/03 07:03:37;;;;;;;1.30;1.30;;;6.80;80.60;;;;;;5114081;28;20174;-78
2023/04/03 07:06:04;;;;;;;2.87;1.20;;;6.90;79.80;;;;;;5113348;28;20190;-77
2023/04/03 07:08:30;;;;;;;1.00;1.00;;;7.00;80.50;;;;;;5113485;28;20171;-78
2023/04/03 07:10:56;;;;;;;1.23;1.13;;;7.20;80.60;;;;;;5123501;27;20178;-80
2023/04/03 07:13:22;;;;;;;1.03;1.03;;;7.20;80.30;;;;;;5115155;27;20216;-78
2023/04/03 07:15:48;;;;;;;1.27;1.27;;;7.30;80.20;;;;;;5133957;27;20170;-78
2023/04/03 07:18:16;;;;;;;1.43;1.43;;;7.30;80.00;;;;;;5133735;27;20169;-78
2023/04/03 07:20:42;;;;;;;1.20;1.10;;;7.10;79.50;;;;;;5115348;27;20260;-78
2023/04/03 07:23:09;;;;;;;1.27;1.27;;;7.10;78.70;;;;;;5133843;27;20263;-76
2023/04/03 07:25:35;;;;;;;1.50;1.40;;;7.00;78.40;;;;;;5133660;27;20221;-78
2023/04/03 07:28:00;;;;;;;1.13;1.13;;;7.00;79.30;;;;;;5115867;27;20205;-80
2023/04/03 07:30:26;;;;;;;1.40;1.30;;;7.10;79.00;;;;;;5133970;27;20183;-78
2023/04/03 07:32:52;;;;;;;2.63;1.10;;;7.30;78.40;;;;;;5134414;27;20170;-80
2023/04/03 07:35:18;;;;;;;1.43;1.43;;;7.20;78.70;;;;;;5134132;27;20195;-79
2023/04/03 07:37:44;;;;;;;1.30;1.30;;;7.20;78.60;;;;;;5134185;27;20169;-78
2023/04/03 07:40:10;;;;;;;1.40;1.40;;;7.30;78.40;;;;;;5134092;27;20174;-78
2023/04/03 07:42:36;;;;;;;1.13;1.13;;;7.30;78.00;;;;;;5115706;27;20175;-78
2023/04/03 07:45:03;;;;;;;1.40;1.30;;;7.50;77.40;;;;;;5133200;27;20196;-78
2023/04/03 07:47:30;;;;;;;1.10;1.10;;;7.70;76.80;;;;;;5134129;27;20249;-78
2023/04/03 07:49:57;;;;;;;1.10;1.10;;;7.70;76.10;;;;;;5134123;27;20176;-78
2023/04/03 07:52:23;;;;;;;0.80;0.80;;;7.70;76.30;;;;;;5133963;27;20218;-80
2023/04/03 07:54:49;;;;;;;1.00;1.00;;;7.60;74.40;;;;;;5133242;27;20208;-80
2023/04/03 07:57:15;;;;;;;1.30;1.30;;;7.50;74.70;;;;;;5115597;27;20178;-80
2023/04/03 07:59:42;;;;;;;1.17;1.10;;;7.60;74.70;;;;;;5117574;27;20629;-78
2023/04/03 08:02:11;;;;;;;1.63;1.53;;;7.40;73.10;;;;;;5138200;27;20251;-78
2023/04/03 08:04:37;;;;;;;1.00;1.00;;;7.30;73.50;;;;;;5147167;27;20178;-78
2023/04/03 08:07:03;;;;;;;1.00;1.00;;;7.30;74.70;;;;;;5148738;27;20242;-78
2023/04/03 08:09:29;;;;;;;1.17;1.17;;;7.40;74.70;;;;;;5140327;27;20188;-79
2023/04/03 08:11:55;;;;;;;0.93;0.93;;;7.50;73.70;;;;;;5135315;27;20169;-81
2023/04/03 08:14:21;;;;;;;1.10;1.10;;;7.50;74.60;;;;;;5132417;27;20241;-78
2023/04/03 08:16:47;;;;;;;1.10;1.10;;;7.50;73.20;;;;;;5132879;28;20174;-78
2023/04/03 08:19:17;;;;;;;1.13;1.13;;;7.50;72.90;;;;;;5133152;28;20181;-77
2023/04/03 08:21:43;;;;;;;1.07;1.07;;;7.50;72.50;;;;;;5132699;28;20170;-78
2023/04/03 08:24:09;;;;;;;1.00;1.00;;;7.50;72.30;;;;;;5132689;28;20536;-78
2023/04/03 08:26:36;;;;;;;1.00;1.00;;;7.60;72.50;;;;;;5113990;28;20179;-78
2023/04/03 08:29:02;;;;;;;1.20;1.20;;;7.60;72.70;;;;;;5132575;28;20176;-78
2023/04/03 08:31:28;;;;;;;1.20;1.20;;;7.70;71.70;;;;;;5132259;28;20173;-78
2023/04/03 08:33:53;;;;;;;1.20;1.10;;;7.80;71.80;;;;;;5132694;28;20671;-78
2023/04/03 08:36:25;;;;;;;0.93;0.93;;;7.90;71.00;;;;;;5132222;28;20257;-78
2023/04/03 08:38:53;;;;;;;1.00;1.00;;;7.80;70.30;;;;;;5132781;28;20241;-80
2023/04/03 08:41:30;;;;;;;2.03;1.07;;;7.70;70.50;;;;;;5132188;28;20664;-79
2023/04/03 08:44:01;;;;;;;1.00;1.00;;;7.50;70.60;;;;;;5132777;28;20162;-79
2023/04/03 08:46:57;;;;;;;1.70;1.10;;;7.60;70.80;;;;;;5132735;28;20276;-80
2023/04/03 08:49:52;;;;;;;0.97;0.97;;;7.80;70.70;;;;;;5090979;28;20181;-78
2023/04/03 08:52:40;;;;;;;0.97;0.97;;;7.70;69.90;;;;;;5110562;28;20239;-78
2023/04/03 08:55:25;;;;;;;1.00;1.00;;;7.80;70.00;;;;;;5131634;27;20271;-80
2023/04/03 08:58:12;;;;;;;1.00;1.00;;;7.90;69.30;;;;;;5136376;27;20162;-78
2023/04/03 09:01:05;;;;;;;1.10;1.10;;;8.00;68.70;;;;;;5104355;27;20181;-78
2023/04/03 09:03:33;;;;;;;1.30;1.30;;;8.00;67.80;;;;;;5136256;27;20209;-79
2023/04/03 09:06:14;;;;;;;0.80;0.80;;;7.90;67.00;;;;;;5136201;27;20273;-78
2023/04/03 09:08:46;;;;;;;0.97;0.97;;;7.80;65.30;;;;;;5136453;27;20179;-79
2023/04/03 09:11:15;;;;;;;1.17;1.13;;;7.80;65.00;;;;;;5123416;27;20179;-79
2023/04/03 09:14:02;;;;;;;1.03;1.03;;;7.70;65.10;;;;;;5115549;28;20226;-79
2023/04/03 09:16:37;;;;;;;0.93;0.93;;;7.70;65.10;;;;;;5115653;28;20585;-80
2023/04/03 09:19:23;;;;;;;0.87;0.87;;;7.60;65.20;;;;;;5115896;28;20171;-79
2023/04/03 09:21:49;;;;;;;0.90;0.90;;;7.50;64.70;;;;;;5097087;28;20173;-79
2023/04/03 09:24:17;;;;;;;1.00;1.00;;;7.60;64.50;;;;;;5115317;28;20178;-78
2023/04/03 09:26:58;;;;;;;0.97;0.93;;;7.60;63.70;;;;;;5097367;28;20179;-79
2023/04/03 09:29:24;;;;;;;0.90;0.90;;;7.50;64.10;;;;;;5115706;28;20169;-78
2023/04/03 09:31:56;;;;;;;0.80;0.80;;;7.60;64.40;;;;;;5096717;28;20186;-78
2023/04/03 09:34:35;;;;;;;1.10;1.10;;;7.50;64.20;;;;;;5115354;28;20215;-80
2023/04/03 09:37:05;;;;;;;0.90;0.90;;;7.70;65.30;;;;;;5115619;28;20168;-78
2023/04/03 09:39:47;;;;;;;1.10;1.10;;;7.70;64.70;;;;;;5115674;28;20183;-77
2023/04/03 09:42:22;;;;;;;1.17;1.13;;;7.70;65.40;;;;;;5115307;28;20157;-77
2023/04/03 09:44:57;;;;;;;0.90;0.90;;;7.80;65.50;;;;;;5114842;28;20182;-79
2023/04/03 09:47:27;;;;;;;0.87;0.87;;;7.80;65.40;;;;;;5113935;28;20171;-79
2023/04/03 09:50:12;;;;;;;1.10;1.10;;;7.80;64.60;;;;;;5113720;28;20167;-79
2023/04/03 09:52:39;;;;;;;1.27;0.90;;;7.80;64.50;;;;;;5114908;28;20170;-79
2023/04/03 09:55:28;;;;;;;0.93;0.93;;;7.80;64.20;;;;;;5114853;28;20210;-79
2023/04/03 09:58:07;;;;;;;0.97;0.97;;;7.80;64.50;;;;;;5115415;28;20170;-77
2023/04/03 10:00:37;;;;;;;1.30;1.20;;;7.80;64.30;;;;;;5115289;28;20166;-78
2023/04/03 10:03:04;;;;;;;1.07;1.07;;;7.80;64.30;;;;;;5114695;28;20204;-80
2023/04/03 10:05:40;;;;;;;0.80;0.80;;;7.90;64.70;;;;;;5114559;28;20190;-79
2023/04/03 10:08:15;;;;;;;1.10;1.10;;;8.20;64.40;;;;;;5114640;28;20161;-78
2023/04/03 10:10:46;;;;;;;0.90;0.90;;;8.30;63.90;;;;;;5122769;27;20183;-79
2023/04/03 10:13:18;;;;;;;1.33;0.97;;;8.10;63.80;;;;;;5134872;27;20167;-80
2023/04/03 10:15:59;;;;;;;1.23;1.20;;;8.10;64.80;;;;;;5135153;27;20266;-78
2023/04/03 10:18:49;;;;;;;1.17;1.17;;;8.30;64.60;;;;;;5135175;27;20169;-80
2023/04/03 10:21:45;;;;;;;1.03;1.00;;;8.50;64.70;;;;;;5135194;27;20179;-80
2023/04/03 10:24:14;;;;;;;1.10;1.10;;;8.50;64.10;;;;;;5135009;27;20171;-79
2023/04/03 10:27:03;;;;;;;0.87;0.87;;;8.60;64.20;;;;;;5134733;27;20212;-78
2023/04/03 10:29:38;;;;;;;0.97;0.97;;;8.80;64.60;;;;;;5134876;27;20242;-79
2023/04/03 10:32:25;;;;;;;1.07;1.07;;;8.90;64.80;;;;;;5133918;27;20190;-79
2023/04/03 10:35:07;;;;;;;1.40;1.30;;;9.00;65.30;;;;;;5133799;27;20298;-80
2023/04/03 10:37:47;;;;;;;1.10;1.10;;;8.90;65.50;;;;;;5134396;27;20164;-78
2023/04/03 10:40:45;;;;;;;1.20;1.10;;;9.00;66.30;;;;;;5134438;27;20167;-80
2023/04/03 10:43:36;;;;;;;1.00;1.00;;;9.20;66.50;;;;;;5050920;28;20232;-79
2023/04/03 10:46:16;;;;;;;1.87;1.10;;;9.10;65.60;;;;;;5050385;28;20662;-80
2023/04/03 10:49:00;;;;;;;1.00;1.00;;;9.00;66.10;;;;;;5050745;28;20280;-79
2023/04/03 10:51:41;;;;;;;1.13;1.13;;;8.80;65.80;;;;;;5050483;28;20190;-80
2023/04/03 10:54:28;;;;;;;1.30;1.20;;;8.70;66.00;;;;;;5050164;28;20221;-79
2023/04/03 10:57:00;;;;;;;0.93;0.93;;;8.70;66.20;;;;;;5050112;28;20274;-80
2023/04/03 10:59:47;;;;;;;1.97;1.27;;;8.60;66.30;;;;;;5050603;28;20273;-79
2023/04/03 11:02:38;;;;;;;1.00;1.00;;;8.70;66.40;;;;;;5050460;28;20228;-79
2023/04/03 11:05:10;;;;;;;1.00;1.00;;;8.80;64.90;;;;;;5050519;28;20172;-77
2023/04/03 11:07:45;;;;;;;1.20;1.10;;;8.50;63.90;;;;;;5049977;28;20197;-78
2023/04/03 11:10:16;;;;;;;1.10;1.10;;;8.60;64.50;;;;;;5046950;28;20612;-78
2023/04/03 11:13:08;;;;;;;1.20;1.10;;;8.50;64.90;;;;;;5031684;28;20302;-78
2023/04/03 11:15:34;;;;;;;1.00;1.00;;;8.50;63.50;;;;;;5030834;28;20553;-77
2023/04/03 11:18:15;;;;;;;1.10;1.10;;;8.30;63.50;;;;;;5030551;28;20701;-77
2023/04/03 11:20:47;;;;;;;1.30;1.30;;;8.20;63.10;;;;;;5099543;28;20261;-78
2023/04/03 11:23:26;;;;;;;0.80;0.80;;;8.20;63.50;;;;;;5113509;28;20472;-80
2023/04/03 11:25:56;;;;;;;0.90;0.90;;;8.30;63.80;;;;;;5113733;28;20175;-78
2023/04/03 11:28:22;;;;;;;0.90;0.90;;;8.40;63.10;;;;;;5113530;28;20271;-79
2023/04/03 11:31:21;;;;;;;0.93;0.90;;;8.40;63.60;;;;;;5113180;28;20649;-78
2023/04/03 11:34:19;;;;;;;0.90;0.90;;;8.60;63.50;;;;;;5094560;28;20203;-80
2023/04/03 11:36:51;;;;;;;0.93;0.93;;;8.50;63.70;;;;;;5113159;28;20161;-80
2023/04/03 11:39:31;;;;;;;0.90;0.90;;;8.60;63.80;;;;;;5113054;28;20902;-78
2023/04/03 11:42:25;;;;;;;0.80;0.80;;;8.70;63.60;;;;;;5113161;28;20268;-79
2023/04/03 11:44:50;;;;;;;1.27;1.17;;;8.80;62.60;;;;;;5094379;28;20619;-78
2023/04/03 11:47:51;;;;;;;0.80;0.80;;;8.80;62.30;;;;;;5113035;28;20208;-79
2023/04/03 11:50:41;;;;;;;0.93;0.93;;;8.90;62.60;;;;;;5113117;28;20179;-78
2023/04/03 11:53:07;;;;;;;1.13;1.13;;;9.00;62.80;;;;;;5112904;28;20183;-78
2023/04/03 11:55:32;;;;;;;1.03;1.03;;;9.10;63.20;;;;;;5112860;28;20208;-80
2023/04/03 11:57:58;;;;;;;1.07;1.00;;;9.20;63.80;;;;;;5112461;28;20206;-77
2023/04/03 12:00:52;;;;;;;1.30;1.30;;;9.30;63.50;;;;;;5112213;28;20176;-78
2023/04/03 12:03:26;;;;;;;1.47;1.20;;;9.00;63.00;;;;;;5112008;28;20632;-78
2023/04/03 12:06:00;;;;;;;1.13;1.13;;;9.00;63.00;;;;;;5112361;28;20192;-77
2023/04/03 12:08:28;;;;;;;1.00;1.00;;;9.00;62.70;;;;;;5112591;28;20157;-79
2023/04/03 12:11:30;;;;;;;2.00;1.83;;;8.90;62.80;;;;;;5122119;27;20187;-77
2023/04/03 12:13:56;;;;;;;0.80;0.80;;;9.00;62.10;;;;;;5048634;28;20226;-78
2023/04/03 12:16:27;;;;;;;1.17;1.00;;;9.20;63.30;;;;;;5049259;28;20664;-78
2023/04/03 12:18:53;;;;;;;1.37;1.27;;;9.40;61.80;;;;;;5049392;28;20183;-78
2023/04/03 12:21:33;;;;;;;1.03;1.03;;;9.20;60.80;;;;;;5049630;28;20636;-80
2023/04/03 12:24:08;;;;;;;1.20;1.20;;;9.10;61.00;;;;;;5048745;28;20231;-80
2023/04/03 12:27:07;;;;;;;1.00;1.00;;;9.00;62.00;;;;;;5048911;28;20684;-80
2023/04/03 12:29:33;;;;;;;1.10;1.10;;;8.90;62.30;;;;;;5049656;28;20548;-78
2023/04/03 12:32:05;;;;;;;1.23;1.13;;;9.00;61.70;;;;;;5036831;28;20173;-78
2023/04/03 12:34:53;;;;;;;1.13;1.13;;;8.90;61.10;;;;;;5053264;28;20730;-78
2023/04/03 12:37:40;;;;;;;1.00;1.00;;;9.10;61.70;;;;;;5028632;28;20268;-77
2023/04/03 12:40:32;;;;;;;1.10;1.10;;;9.20;61.10;;;;;;5052902;28;20182;-79
2023/04/03 12:43:05;;;;;;;1.00;1.00;;;9.30;60.70;;;;;;5052955;28;20189;-76
2023/04/03 12:45:43;;;;;;;1.03;1.03;;;9.10;60.00;;;;;;5053045;28;20191;-78
2023/04/03 12:48:15;;;;;;;1.13;1.10;;;8.80;60.40;;;;;;5054412;28;20223;-78
2023/04/03 12:50:42;;;;;;;1.30;1.30;;;8.70;61.30;;;;;;5136952;27;20188;-79
2023/04/03 12:53:22;;;;;;;1.10;1.10;;;8.90;61.30;;;;;;5136500;27;20206;-79
2023/04/03 12:55:48;;;;;;;1.20;1.20;;;9.00;61.10;;;;;;5136484;27;20231;-79
2023/04/03 12:58:16;;;;;;;1.00;1.00;;;9.20;60.90;;;;;;5136533;27;20652;-77
2023/04/03 13:00:42;;;;;;;1.40;1.30;;;9.30;60.50;;;;;;5136202;27;20653;-79
2023/04/03 13:03:24;;;;;;;1.30;1.30;;;9.40;60.70;;;;;;5136202;27;20254;-77
2023/04/03 13:05:50;;;;;;;1.23;1.23;;;9.60;61.00;;;;;;5136061;27;20191;-78
2023/04/03 13:08:19;;;;;;;1.53;1.37;;;9.70;61.20;;;;;;5136455;27;20176;-78
2023/04/03 13:10:55;;;;;;;1.30;1.20;;;9.70;60.40;;;;;;5127439;27;20185;-78
2023/04/03 13:13:22;;;;;;;1.10;1.10;;;9.80;60.40;;;;;;5115431;28;20165;-78